createdAt,value
2018-06-09T00:02:19.423Z,3.03
2018-06-09T00:04:47.495Z,3.00
2018-06-09T00:07:15.580Z,3.50
2018-06-09T00:09:43.663Z,2.93
2018-06-09T00:12:11.747Z,3.30
2018-06-09T00:14:39.847Z,3.37
2018-06-09T00:17:07.715Z,2.63
2018-06-09T00:19:35.816Z,3.00
2018-06-09T00:22:03.904Z,3.10
2018-06-09T00:24:32.003Z,2.97
2018-06-09T00:27:00.088Z,2.90
2018-06-09T00:29:28.171Z,2.80
2018-06-09T00:31:56.248Z,2.90
2018-06-09T00:34:24.353Z,2.70
2018-06-09T00:36:52.458Z,3.20
2018-06-09T00:39:20.561Z,2.67
2018-06-09T00:41:48.673Z,2.80
2018-06-09T00:44:16.768Z,3.00
2018-06-09T00:46:44.849Z,2.80
2018-06-09T00:49:12.928Z,2.40
2018-06-09T00:51:41.008Z,2.70
2018-06-09T00:54:09.100Z,3.37
2018-06-09T00:56:44.269Z,2.73
2018-06-09T00:59:12.391Z,2.50
2018-06-09T01:01:47.140Z,2.83
2018-06-09T01:04:15.247Z,2.90
2018-06-09T01:06:43.343Z,2.60
2018-06-09T01:09:11.436Z,2.87
2018-06-09T01:11:39.523Z,2.60
2018-06-09T01:14:07.394Z,2.80
2018-06-09T01:16:35.255Z,2.63
2018-06-09T01:19:03.122Z,2.50
2018-06-09T01:21:31.227Z,2.67
2018-06-09T01:23:59.334Z,2.70
2018-06-09T01:26:27.455Z,2.90
2018-06-09T01:28:55.554Z,2.97
2018-06-09T01:31:23.675Z,2.80
2018-06-09T01:33:51.758Z,2.90
2018-06-09T01:36:19.876Z,2.67
2018-06-09T01:38:47.957Z,2.63
2018-06-09T01:41:16.059Z,2.70
2018-06-09T01:43:44.133Z,2.67
2018-06-09T01:46:12.219Z,2.60
2018-06-09T01:48:40.082Z,2.63
2018-06-09T01:51:08.175Z,2.60
2018-06-09T01:53:36.288Z,3.30
2018-06-09T01:56:04.400Z,2.70
2018-06-09T01:58:32.275Z,2.90
2018-06-09T02:01:00.364Z,2.50
2018-06-09T02:03:28.485Z,2.57
2018-06-09T02:05:56.583Z,2.70
2018-06-09T02:08:24.687Z,2.63
2018-06-09T02:10:52.801Z,2.90
2018-06-09T02:13:20.918Z,3.03
2018-06-09T02:15:48.820Z,2.63
2018-06-09T02:18:16.936Z,2.87
2018-06-09T02:20:45.049Z,2.93
2018-06-09T02:23:13.166Z,2.80
2018-06-09T02:25:41.273Z,3.10
2018-06-09T02:28:09.368Z,2.80
2018-06-09T02:30:37.464Z,2.37
2018-06-09T02:33:05.571Z,2.77
2018-06-09T02:35:33.697Z,2.67
2018-06-09T02:38:01.813Z,2.80
2018-06-09T02:40:29.926Z,2.63
2018-06-09T02:42:58.062Z,2.53
2018-06-09T02:45:26.162Z,2.50
2018-06-09T02:47:54.286Z,3.00
2018-06-09T02:50:22.398Z,2.93
2018-06-09T02:52:50.276Z,2.90
2018-06-09T02:55:18.392Z,2.67
2018-06-09T02:57:46.493Z,2.40
2018-06-09T03:00:14.620Z,2.77
2018-06-09T03:02:42.712Z,2.67
2018-06-09T03:05:10.817Z,2.57
2018-06-09T03:07:38.952Z,2.83
2018-06-09T03:10:07.090Z,2.70
2018-06-09T03:12:35.196Z,2.60
2018-06-09T03:15:03.304Z,2.90
2018-06-09T03:17:31.418Z,2.67
2018-06-09T03:19:59.528Z,2.53
2018-06-09T03:22:27.637Z,2.83
2018-06-09T03:24:55.728Z,2.80
2018-06-09T03:27:23.615Z,2.40
2018-06-09T03:29:51.731Z,2.63
2018-06-09T03:32:20.235Z,3.10
2018-06-09T03:34:48.348Z,2.50
2018-06-09T03:37:16.468Z,2.77
2018-06-09T03:39:44.573Z,2.60
2018-06-09T03:42:12.468Z,2.30
2018-06-09T03:44:40.589Z,2.60
2018-06-09T03:47:08.700Z,2.90
2018-06-09T03:49:36.819Z,2.80
2018-06-09T03:52:04.977Z,2.80
2018-06-09T03:54:33.090Z,2.90
2018-06-09T03:57:01.200Z,2.93
2018-06-09T03:59:29.323Z,2.50
2018-06-09T04:01:57.444Z,2.50
2018-06-09T04:04:25.551Z,3.13
2018-06-09T04:06:53.665Z,2.90
2018-06-09T04:09:21.777Z,2.77
2018-06-09T04:11:49.893Z,2.57
2018-06-09T04:14:18.020Z,2.90
2018-06-09T04:16:48.636Z,2.90
2018-06-09T04:19:16.750Z,2.57
2018-06-09T04:21:44.926Z,2.73
2018-06-09T04:24:13.816Z,2.70
2018-06-09T04:26:41.953Z,2.90
2018-06-09T04:29:10.030Z,2.90
2018-06-09T04:31:38.151Z,2.97
2018-06-09T04:34:06.264Z,2.57
2018-06-09T04:36:34.429Z,2.57
2018-06-09T04:39:02.576Z,2.70
2018-06-09T04:41:30.711Z,2.30
2018-06-09T04:43:58.829Z,2.57
2018-06-09T04:46:26.945Z,2.80
2018-06-09T04:48:55.072Z,2.50
2018-06-09T04:51:22.956Z,2.30
2018-06-09T04:53:51.065Z,3.13
2018-06-09T04:56:19.152Z,2.70
2018-06-09T04:58:47.236Z,2.60
2018-06-09T05:01:15.333Z,2.63
2018-06-09T05:03:43.436Z,2.70
2018-06-09T05:06:11.557Z,2.60
2018-06-09T05:08:39.663Z,2.80
2018-06-09T05:11:07.771Z,2.50
2018-06-09T05:13:35.902Z,2.70
2018-06-09T05:16:03.983Z,2.80
2018-06-09T05:18:31.887Z,2.43
2018-06-09T05:20:59.981Z,2.90
2018-06-09T05:23:28.140Z,2.50
2018-06-09T05:25:56.247Z,2.53
2018-06-09T05:28:24.360Z,2.63
2018-06-09T05:30:52.456Z,2.53
2018-06-09T05:33:20.565Z,3.13
2018-06-09T05:35:48.688Z,2.70
2018-06-09T05:38:16.792Z,3.00
2018-06-09T05:40:44.880Z,2.30
2018-06-09T05:43:12.969Z,2.73
2018-06-09T05:45:40.864Z,2.60
2018-06-09T05:48:08.988Z,2.53
2018-06-09T05:50:37.087Z,2.53
2018-06-09T05:53:05.216Z,2.73
2018-06-09T05:55:33.325Z,2.70
2018-06-09T05:58:01.473Z,2.80
2018-06-09T06:00:29.589Z,2.77
2018-06-09T06:02:57.731Z,2.57
2018-06-09T06:05:25.792Z,2.70
2018-06-09T06:07:53.927Z,3.00
2018-06-09T06:10:22.039Z,2.33
2018-06-09T06:12:50.148Z,2.87
2018-06-09T06:15:18.278Z,2.70
2018-06-09T06:17:46.396Z,2.70
2018-06-09T06:20:14.493Z,2.70
2018-06-09T06:22:42.604Z,2.70
2018-06-09T06:25:10.705Z,2.33
2018-06-09T06:27:38.821Z,2.67
2018-06-09T06:30:06.924Z,2.80
2018-06-09T06:32:35.057Z,2.63
2018-06-09T06:35:03.140Z,2.40
2018-06-09T06:37:31.271Z,2.50
2018-06-09T06:39:59.391Z,2.47
2018-06-09T06:42:27.496Z,2.50
2018-06-09T06:44:55.644Z,2.40
2018-06-09T06:47:23.741Z,2.37
2018-06-09T06:49:51.859Z,2.70
2018-06-09T06:52:19.952Z,2.60
2018-06-09T06:54:48.093Z,2.30
2018-06-09T06:57:16.200Z,2.20
2018-06-09T06:59:44.312Z,2.63
2018-06-09T07:02:12.436Z,2.57
2018-06-09T07:04:40.556Z,2.50
2018-06-09T07:07:08.680Z,2.70
2018-06-09T07:09:36.816Z,2.60
2018-06-09T07:12:04.775Z,2.33
2018-06-09T07:14:32.896Z,2.50
2018-06-09T07:17:00.997Z,2.60
2018-06-09T07:19:29.100Z,3.10
2018-06-09T07:21:57.241Z,2.60
2018-06-09T07:24:25.339Z,2.60
2018-06-09T07:26:53.456Z,2.57
2018-06-09T07:29:21.568Z,2.67
2018-06-09T07:31:49.672Z,2.70
2018-06-09T07:34:17.808Z,2.60
2018-06-09T07:36:46.061Z,2.70
2018-06-09T07:39:14.164Z,2.73
2018-06-09T07:41:42.256Z,2.50
2018-06-09T07:44:10.139Z,2.53
2018-06-09T07:46:38.257Z,2.10
2018-06-09T07:49:06.383Z,2.63
2018-06-09T07:51:34.510Z,2.27
2018-06-09T07:54:02.611Z,2.70
2018-06-09T07:56:30.728Z,2.53
2018-06-09T07:58:58.840Z,2.73
2018-06-09T08:01:26.932Z,2.67
2018-06-09T08:03:55.048Z,2.27
2018-06-09T08:06:23.163Z,2.30
2018-06-09T08:08:51.374Z,2.57
2018-06-09T08:11:19.397Z,2.47
2018-06-09T08:13:47.508Z,2.60
2018-06-09T08:16:15.608Z,2.33
2018-06-09T08:18:43.728Z,2.60
2018-06-09T08:21:11.820Z,2.50
2018-06-09T08:23:39.936Z,2.47
2018-06-09T08:26:08.108Z,2.93
2018-06-09T08:28:36.224Z,2.27
2018-06-09T08:31:04.357Z,2.43
2018-06-09T08:33:32.464Z,2.43
2018-06-09T08:36:00.652Z,2.27
2018-06-09T08:38:28.724Z,2.70
2018-06-09T08:40:57.005Z,2.80
2018-06-09T08:43:25.104Z,2.60
2018-06-09T08:45:53.203Z,2.43
2018-06-09T08:48:21.327Z,2.70
2018-06-09T08:50:49.512Z,2.20
2018-06-09T08:53:17.624Z,2.40
2018-06-09T08:55:45.784Z,2.33
2018-06-09T08:58:13.908Z,2.57
2018-06-09T09:00:41.996Z,2.37
2018-06-09T09:03:09.874Z,2.57
2018-06-09T09:05:37.772Z,2.23
2018-06-09T09:08:05.876Z,2.43
2018-06-09T09:10:33.985Z,2.40
2018-06-09T09:13:02.085Z,2.40
2018-06-09T09:15:30.199Z,2.13
2018-06-09T09:18:04.912Z,2.70
2018-06-09T09:20:33.023Z,2.43
2018-06-09T09:23:01.143Z,2.57
2018-06-09T09:25:29.252Z,2.30
2018-06-09T09:27:57.370Z,2.60
2018-06-09T09:30:25.473Z,2.60
2018-06-09T09:32:53.602Z,2.20
2018-06-09T09:35:21.753Z,2.40
2018-06-09T09:37:49.868Z,2.20
2018-06-09T09:40:18.000Z,2.40
2018-06-09T09:42:46.113Z,2.47
2018-06-09T09:45:14.224Z,2.50
2018-06-09T09:47:42.324Z,2.30
2018-06-09T09:50:10.435Z,2.27
2018-06-09T09:52:38.540Z,2.17
2018-06-09T09:55:06.683Z,2.37
2018-06-09T09:57:46.192Z,2.43
2018-06-09T10:00:18.553Z,2.23
2018-06-09T10:02:46.431Z,2.20
2018-06-09T10:05:14.324Z,2.20
2018-06-09T10:07:42.424Z,2.20
2018-06-09T10:10:10.520Z,1.87
2018-06-09T10:12:38.642Z,2.10
2018-06-09T10:15:06.769Z,2.00
2018-06-09T10:17:34.856Z,2.00
2018-06-09T10:20:02.968Z,1.90
2018-06-09T10:22:31.055Z,2.13
2018-06-09T10:24:59.155Z,1.80
2018-06-09T10:27:27.252Z,1.87
2018-06-09T10:29:55.368Z,2.07
2018-06-09T10:32:23.484Z,1.77
2018-06-09T10:34:51.381Z,1.63
2018-06-09T10:37:19.492Z,1.70
2018-06-09T10:39:47.576Z,2.10
2018-06-09T10:42:15.680Z,1.77
2018-06-09T10:44:43.788Z,2.00
2018-06-09T10:47:11.907Z,1.90
2018-06-09T10:49:40.014Z,2.10
2018-06-09T10:52:08.131Z,2.00
2018-06-09T10:54:36.228Z,1.90
2018-06-09T10:57:04.376Z,2.03
2018-06-09T10:59:32.341Z,2.07
2018-06-09T11:02:00.451Z,1.83
2018-06-09T11:04:28.548Z,1.97
2018-06-09T11:06:56.668Z,2.20
2018-06-09T11:09:24.768Z,2.00
2018-06-09T11:11:52.860Z,2.13
2018-06-09T11:14:20.963Z,1.90
2018-06-09T11:16:49.070Z,2.17
2018-06-09T11:19:17.181Z,2.07
2018-06-09T11:21:45.336Z,2.00
2018-06-09T11:24:13.449Z,2.50
2018-06-09T11:26:41.584Z,2.07
2018-06-09T11:29:09.689Z,2.27
2018-06-09T11:31:37.789Z,2.30
2018-06-09T11:34:05.696Z,2.20
2018-06-09T11:36:33.788Z,2.20
2018-06-09T11:39:07.617Z,2.40
2018-06-09T11:41:36.166Z,2.20
2018-06-09T11:44:04.493Z,2.13
2018-06-09T11:46:37.532Z,2.07
2018-06-09T11:49:05.656Z,2.30
2018-06-09T11:51:33.804Z,2.40
2018-06-09T11:54:01.940Z,2.27
2018-06-09T11:56:30.044Z,2.40
2018-06-09T11:58:57.943Z,2.33
2018-06-09T12:01:26.085Z,2.23
2018-06-09T12:03:54.227Z,2.23
2018-06-09T12:06:22.320Z,2.30
2018-06-09T12:08:50.439Z,2.50
2018-06-09T12:11:18.545Z,2.40
2018-06-09T12:13:46.663Z,2.37
2018-06-09T12:16:14.761Z,2.30
2018-06-09T12:18:42.864Z,2.53
2018-06-09T12:21:10.982Z,2.43
2018-06-09T12:23:39.105Z,2.27
2018-06-09T12:26:07.209Z,2.67
2018-06-09T12:28:35.331Z,2.57
2018-06-09T12:31:03.428Z,2.90
2018-06-09T12:33:31.545Z,2.10
2018-06-09T12:35:59.726Z,2.30
2018-06-09T12:38:27.842Z,2.30
2018-06-09T12:40:55.927Z,2.13
2018-06-09T12:43:23.819Z,2.20
2018-06-09T12:45:51.696Z,2.10
2018-06-09T12:48:19.825Z,2.30
2018-06-09T12:50:48.842Z,2.17
2018-06-09T12:53:16.944Z,2.30
2018-06-09T12:55:45.063Z,2.23
2018-06-09T12:58:13.188Z,2.63
2018-06-09T13:00:41.292Z,1.90
2018-06-09T13:03:09.407Z,2.00
2018-06-09T13:05:37.532Z,1.33
2018-06-09T13:08:05.676Z,1.40
2018-06-09T13:10:33.800Z,1.40
2018-06-09T13:13:01.936Z,1.10
2018-06-09T13:15:30.071Z,1.20
2018-06-09T13:17:57.979Z,1.30
2018-06-09T13:20:26.076Z,1.00
2018-06-09T13:22:54.199Z,0.90
2018-06-09T13:25:22.308Z,0.80
2018-06-09T13:27:50.433Z,0.90
2018-06-09T13:30:18.610Z,0.97
2018-06-09T13:32:46.536Z,0.90
2018-06-09T13:35:14.648Z,1.10
2018-06-09T13:37:42.857Z,0.80
2018-06-09T13:40:10.867Z,0.90
2018-06-09T13:42:38.963Z,1.10
2018-06-09T13:45:06.864Z,1.20
2018-06-09T13:47:34.976Z,1.13
2018-06-09T13:50:03.109Z,1.23
2018-06-09T13:52:32.035Z,1.47
2018-06-09T13:55:00.172Z,1.40
2018-06-09T13:57:28.287Z,1.60
2018-06-09T13:59:56.396Z,1.83
2018-06-09T14:02:24.517Z,1.70
2018-06-09T14:04:52.651Z,1.60
2018-06-09T14:07:20.772Z,2.00
2018-06-09T14:09:48.896Z,1.80
2018-06-09T14:12:17.185Z,2.13
2018-06-09T14:14:45.312Z,2.00
2018-06-09T14:17:13.427Z,1.87
2018-06-09T14:19:41.538Z,2.37
2018-06-09T14:22:09.632Z,2.40
2018-06-09T14:24:37.728Z,2.10
2018-06-09T14:27:05.832Z,2.20
2018-06-09T14:29:33.970Z,2.40
2018-06-09T14:32:02.232Z,2.30
2018-06-09T14:34:30.348Z,2.43
2018-06-09T14:36:58.468Z,2.43
2018-06-09T14:39:26.573Z,2.00
2018-06-09T14:41:54.676Z,2.60
2018-06-09T14:44:22.796Z,2.50
2018-06-09T14:46:50.884Z,2.57
2018-06-09T14:49:18.984Z,3.20
2018-06-09T14:51:47.095Z,2.33
2018-06-09T14:54:15.176Z,2.23
2018-06-09T14:56:44.674Z,2.50
2018-06-09T14:59:14.604Z,2.20
2018-06-09T15:01:45.163Z,2.60
2018-06-09T15:04:20.756Z,2.50
2018-06-09T15:06:50.460Z,2.30
2018-06-09T15:09:18.553Z,2.60
2018-06-09T15:11:53.420Z,2.50
2018-06-09T15:14:21.541Z,2.70
2018-06-09T15:16:49.642Z,2.73
2018-06-09T15:19:17.736Z,2.77
2018-06-09T15:21:45.838Z,2.57
2018-06-09T15:24:13.927Z,2.50
2018-06-09T15:26:42.034Z,2.67
2018-06-09T15:29:13.919Z,2.90
2018-06-09T15:31:42.041Z,3.07
2018-06-09T15:34:10.129Z,3.20
2018-06-09T15:36:38.268Z,3.00
2018-06-09T15:39:07.112Z,2.70
2018-06-09T15:41:35.224Z,2.83
2018-06-09T15:44:03.375Z,2.90
2018-06-09T15:46:31.555Z,2.90
2018-06-09T15:48:59.597Z,3.13
2018-06-09T15:51:27.719Z,3.07
2018-06-09T15:53:55.829Z,3.07
2018-06-09T15:56:23.925Z,3.00
2018-06-09T15:58:52.040Z,3.10
2018-06-09T16:01:20.149Z,2.87
2018-06-09T16:03:48.248Z,3.00
2018-06-09T16:06:16.370Z,3.13
2018-06-09T16:08:44.468Z,2.97
2018-06-09T16:11:12.568Z,2.93
2018-06-09T16:13:40.673Z,3.23
2018-06-09T16:16:08.796Z,3.20
2018-06-09T16:18:36.925Z,2.70
2018-06-09T16:21:12.573Z,3.90
2018-06-09T16:23:45.076Z,3.80
2018-06-09T16:26:13.186Z,3.47
2018-06-09T16:28:41.272Z,3.60
2018-06-09T16:31:09.392Z,3.10
2018-06-09T16:33:37.488Z,3.40
2018-06-09T16:36:05.608Z,3.10
2018-06-09T16:38:33.734Z,3.17
2018-06-09T16:41:09.410Z,3.20
2018-06-09T16:43:37.608Z,3.33
2018-06-09T16:46:12.336Z,3.20
2018-06-09T16:48:45.208Z,3.33
2018-06-09T16:51:13.303Z,3.70
2018-06-09T16:53:41.392Z,3.10
2018-06-09T16:56:09.555Z,3.13
2018-06-09T16:58:41.079Z,3.23
2018-06-09T17:01:09.540Z,3.27
2018-06-09T17:03:37.680Z,3.60
2018-06-09T17:06:05.824Z,3.63
2018-06-09T17:08:33.950Z,3.90
2018-06-09T17:11:02.088Z,3.40
2018-06-09T17:13:30.201Z,3.50
2018-06-09T17:15:58.311Z,3.27
2018-06-09T17:18:27.152Z,3.70
2018-06-09T17:20:55.229Z,3.40
2018-06-09T17:23:23.344Z,3.80
2018-06-09T17:25:51.428Z,3.90
2018-06-09T17:28:19.529Z,4.00
2018-06-09T17:30:47.612Z,3.67
2018-06-09T17:33:15.725Z,3.60
2018-06-09T17:35:43.813Z,3.70
2018-06-09T17:38:11.910Z,3.40
2018-06-09T17:40:40.000Z,4.00
2018-06-09T17:43:08.122Z,3.43
2018-06-09T17:45:36.227Z,3.90
2018-06-09T17:48:04.340Z,3.77
2018-06-09T17:50:32.447Z,4.07
2018-06-09T17:53:00.540Z,4.03
2018-06-09T17:55:28.627Z,3.80
2018-06-09T17:57:56.724Z,3.70
2018-06-09T18:00:24.840Z,3.87
2018-06-09T18:02:53.003Z,3.70
2018-06-09T18:05:21.097Z,4.10
2018-06-09T18:07:49.204Z,4.20
2018-06-09T18:10:17.300Z,3.90
2018-06-09T18:12:45.405Z,3.70
2018-06-09T18:15:13.492Z,3.87
2018-06-09T18:17:41.603Z,3.97
2018-06-09T18:20:09.723Z,4.00
2018-06-09T18:22:37.842Z,3.93
2018-06-09T18:25:05.996Z,4.37
2018-06-09T18:27:34.148Z,4.43
2018-06-09T18:30:02.242Z,4.30
2018-06-09T18:32:30.353Z,4.43
2018-06-09T18:34:58.440Z,4.23
2018-06-09T18:37:26.608Z,3.87
2018-06-09T18:39:54.788Z,4.10
2018-06-09T18:42:22.896Z,4.30
2018-06-09T18:44:50.996Z,3.90
2018-06-09T18:47:19.153Z,4.20
2018-06-09T18:49:47.244Z,4.50
2018-06-09T18:52:15.343Z,4.73
2018-06-09T18:54:43.452Z,3.80
2018-06-09T18:57:11.564Z,4.53
2018-06-09T18:59:39.661Z,4.40
2018-06-09T19:02:07.743Z,4.17
2018-06-09T19:04:35.847Z,4.23
2018-06-09T19:07:04.013Z,4.30
2018-06-09T19:09:32.092Z,4.40
2018-06-09T19:12:00.186Z,4.13
2018-06-09T19:14:28.272Z,4.27
2018-06-09T19:16:56.368Z,4.30
2018-06-09T19:19:24.464Z,4.70
2018-06-09T19:21:52.584Z,4.50
2018-06-09T19:24:20.681Z,4.90
2018-06-09T19:26:48.789Z,4.60
2018-06-09T19:29:16.916Z,4.63
2018-06-09T19:31:45.012Z,4.43
2018-06-09T19:34:13.133Z,4.50
2018-06-09T19:36:41.224Z,4.30
2018-06-09T19:39:09.369Z,5.20
2018-06-09T19:41:37.456Z,4.60
2018-06-09T19:44:05.597Z,4.40
2018-06-09T19:46:33.717Z,4.70
2018-06-09T19:49:01.877Z,4.57
2018-06-09T19:51:30.028Z,5.70
2018-06-09T19:53:58.147Z,6.90
2018-06-09T19:56:26.276Z,8.00
2018-06-09T19:58:54.380Z,8.10
2018-06-09T20:01:22.519Z,7.93
2018-06-09T20:03:50.701Z,8.97
2018-06-09T20:06:18.812Z,8.03
2018-06-09T20:08:46.916Z,8.70
2018-06-09T20:11:15.003Z,8.17
2018-06-09T20:13:43.100Z,8.97
2018-06-09T20:16:11.225Z,9.23
2018-06-09T20:18:39.320Z,8.57
2018-06-09T20:21:07.460Z,8.60
2018-06-09T20:23:35.587Z,8.47
2018-06-09T20:26:05.243Z,7.47
2018-06-09T20:28:33.741Z,8.70
2018-06-09T20:31:01.981Z,8.00
2018-06-09T20:33:30.116Z,8.23
2018-06-09T20:35:58.232Z,7.80
2018-06-09T20:38:26.348Z,7.80
2018-06-09T20:40:54.429Z,7.10
2018-06-09T20:43:22.545Z,7.90
2018-06-09T20:45:50.646Z,7.93
2018-06-09T20:48:18.833Z,8.40
2018-06-09T20:50:46.941Z,6.83
2018-06-09T20:53:15.036Z,8.47
2018-06-09T20:55:43.160Z,8.80
2018-06-09T20:58:11.265Z,8.77
2018-06-09T21:00:39.408Z,7.73
2018-06-09T21:03:07.516Z,7.47
2018-06-09T21:05:35.623Z,8.03
2018-06-09T21:08:03.749Z,8.10
2018-06-09T21:10:31.841Z,8.03
2018-06-09T21:12:59.945Z,9.30
2018-06-09T21:15:28.036Z,8.30
2018-06-09T21:17:56.149Z,8.10
2018-06-09T21:20:24.244Z,9.10
2018-06-09T21:22:52.367Z,9.40
2018-06-09T21:25:20.480Z,8.43
2018-06-09T21:27:54.097Z,8.60
2018-06-09T21:30:27.639Z,8.00
2018-06-09T21:33:01.089Z,8.50
2018-06-09T21:35:43.458Z,7.13
2018-06-09T21:38:16.493Z,8.97
2018-06-09T21:40:47.627Z,8.57
2018-06-09T21:43:21.296Z,8.50
2018-06-09T21:45:50.416Z,8.93
2018-06-09T21:48:19.213Z,8.30
2018-06-09T21:50:47.408Z,8.93
2018-06-09T21:53:15.545Z,8.83
2018-06-09T21:55:43.644Z,9.03
2018-06-09T21:58:11.753Z,6.70
2018-06-09T22:00:39.896Z,6.77
2018-06-09T22:03:08.033Z,5.90
2018-06-09T22:05:36.144Z,7.00
2018-06-09T22:08:04.260Z,5.90
2018-06-09T22:10:32.368Z,6.23
2018-06-09T22:13:00.496Z,6.40
2018-06-09T22:15:28.614Z,5.20
2018-06-09T22:17:56.703Z,5.50
2018-06-09T22:20:24.847Z,5.73
2018-06-09T22:22:52.976Z,5.50
2018-06-09T22:25:26.392Z,5.00
2018-06-09T22:27:54.543Z,5.20
2018-06-09T22:30:22.660Z,5.20
2018-06-09T22:32:50.772Z,5.53
2018-06-09T22:35:18.865Z,5.30
2018-06-09T22:37:47.035Z,5.80
2018-06-09T22:40:15.169Z,5.37
2018-06-09T22:42:43.288Z,5.70
2018-06-09T22:45:11.397Z,5.10
2018-06-09T22:47:39.504Z,5.30
2018-06-09T22:50:07.627Z,5.60
2018-06-09T22:52:35.734Z,5.70
2018-06-09T22:55:03.876Z,5.40
2018-06-09T22:57:32.005Z,6.20
2018-06-09T23:00:00.141Z,6.43
2018-06-09T23:02:28.239Z,5.43
2018-06-09T23:04:56.375Z,5.70
2018-06-09T23:07:24.478Z,5.87
2018-06-09T23:09:52.571Z,5.97
2018-06-09T23:12:20.686Z,5.83
2018-06-09T23:14:48.811Z,6.37
2018-06-09T23:17:16.972Z,6.60
2018-06-09T23:19:45.077Z,6.93
2018-06-09T23:22:13.227Z,7.67
2018-06-09T23:24:41.357Z,8.60
2018-06-09T23:27:09.476Z,7.60
2018-06-09T23:29:37.586Z,7.53
2018-06-09T23:32:06.357Z,7.97
2018-06-09T23:34:34.457Z,8.40
2018-06-09T23:37:02.584Z,8.70
2018-06-09T23:39:30.712Z,8.70
2018-06-09T23:41:58.898Z,8.00
2018-06-09T23:44:27.001Z,8.93
2018-06-09T23:46:55.149Z,8.27
2018-06-09T23:49:23.269Z,8.40
2018-06-09T23:51:51.427Z,7.80
2018-06-09T23:54:19.512Z,8.37
2018-06-09T23:56:47.608Z,8.30
2018-06-09T23:59:15.700Z,7.93
